sensor_id;sensor_type;location;lat;lon;timestamp;P1;durP1;ratioP1;P2;durP2;ratioP2
20076;SDS011;12348;42.710;23.378;2022-07-18T00:04:17;2.70;;;2.50;;
20076;SDS011;12348;42.710;23.378;2022-07-18T00:06:44;3.60;;;2.40;;
20076;SDS011;12348;42.710;23.378;2022-07-18T00:09:10;3.03;;;2.33;;
20076;SDS011;12348;42.710;23.378;2022-07-18T00:11:37;3.30;;;2.33;;
20076;SDS011;12348;42.710;23.378;2022-07-18T00:14:04;3.20;;;2.43;;
20076;SDS011;12348;42.710;23.378;2022-07-18T00:16:32;4.67;;;2.60;;
20076;SDS011;12348;42.710;23.378;2022-07-18T00:18:59;7.87;;;2.50;;
20076;SDS011;12348;42.710;23.378;2022-07-18T00:21:27;6.97;;;2.70;;
20076;SDS011;12348;42.710;23.378;2022-07-18T00:23:54;7.80;;;3.93;;
20076;SDS011;12348;42.710;23.378;2022-07-18T00:26:21;11.87;;;4.33;;
20076;SDS011;12348;42.710;23.378;2022-07-18T00:28:47;12.57;;;6.53;;
20076;SDS011;12348;42.710;23.378;2022-07-18T00:31:14;8.37;;;4.63;;
20076;SDS011;12348;42.710;23.378;2022-07-18T00:33:43;14.00;;;6.40;;
20076;SDS011;12348;42.710;23.378;2022-07-18T00:36:10;8.90;;;4.17;;
20076;SDS011;12348;42.710;23.378;2022-07-18T00:38:37;5.43;;;2.73;;
20076;SDS011;12348;42.710;23.378;2022-07-18T00:41:04;5.87;;;3.33;;
20076;SDS011;12348;42.710;23.378;2022-07-18T00:43:32;3.13;;;2.47;;
20076;SDS011;12348;42.710;23.378;2022-07-18T00:45:59;5.23;;;3.80;;
20076;SDS011;12348;42.710;23.378;2022-07-18T00:48:26;6.13;;;2.70;;
20076;SDS011;12348;42.710;23.378;2022-07-18T00:50:54;2.63;;;2.40;;
20076;SDS011;12348;42.710;23.378;2022-07-18T00:53:21;4.23;;;2.50;;
20076;SDS011;12348;42.710;23.378;2022-07-18T00:55:49;4.53;;;2.37;;
20076;SDS011;12348;42.710;23.378;2022-07-18T00:58:16;2.73;;;2.10;;
20076;SDS011;12348;42.710;23.378;2022-07-18T01:00:43;4.63;;;2.30;;
20076;SDS011;12348;42.710;23.378;2022-07-18T01:03:28;2.80;;;2.30;;
20076;SDS011;12348;42.710;23.378;2022-07-18T01:05:56;7.63;;;2.27;;
20076;SDS011;12348;42.710;23.378;2022-07-18T01:08:23;2.63;;;2.43;;
20076;SDS011;12348;42.710;23.378;2022-07-18T01:10:50;4.70;;;2.43;;
20076;SDS011;12348;42.710;23.378;2022-07-18T01:13:19;3.80;;;2.00;;
20076;SDS011;12348;42.710;23.378;2022-07-18T01:15:46;3.60;;;2.10;;
20076;SDS011;12348;42.710;23.378;2022-07-18T01:18:13;2.47;;;1.87;;
20076;SDS011;12348;42.710;23.378;2022-07-18T01:20:41;3.73;;;1.73;;
20076;SDS011;12348;42.710;23.378;2022-07-18T01:23:08;3.77;;;2.40;;
20076;SDS011;12348;42.710;23.378;2022-07-18T01:25:35;4.47;;;2.73;;
20076;SDS011;12348;42.710;23.378;2022-07-18T01:28:01;3.23;;;1.93;;
20076;SDS011;12348;42.710;23.378;2022-07-18T01:30:29;4.40;;;2.00;;
20076;SDS011;12348;42.710;23.378;2022-07-18T01:32:56;2.30;;;2.10;;
20076;SDS011;12348;42.710;23.378;2022-07-18T01:35:24;2.47;;;1.93;;
20076;SDS011;12348;42.710;23.378;2022-07-18T01:37:54;2.27;;;1.80;;
20076;SDS011;12348;42.710;23.378;2022-07-18T01:40:21;3.50;;;2.23;;
20076;SDS011;12348;42.710;23.378;2022-07-18T01:42:49;3.03;;;1.97;;
20076;SDS011;12348;42.710;23.378;2022-07-18T01:45:16;2.00;;;1.80;;
20076;SDS011;12348;42.710;23.378;2022-07-18T01:47:43;3.10;;;2.17;;
20076;SDS011;12348;42.710;23.378;2022-07-18T01:50:10;2.03;;;1.83;;
20076;SDS011;12348;42.710;23.378;2022-07-18T01:52:38;2.50;;;2.10;;
20076;SDS011;12348;42.710;23.378;2022-07-18T01:55:07;5.20;;;2.37;;
20076;SDS011;12348;42.710;23.378;2022-07-18T01:57:35;5.53;;;3.10;;
20076;SDS011;12348;42.710;23.378;2022-07-18T02:00:03;7.33;;;3.57;;
20076;SDS011;12348;42.710;23.378;2022-07-18T02:02:30;3.70;;;2.77;;
20076;SDS011;12348;42.710;23.378;2022-07-18T02:04:57;8.13;;;3.30;;
20076;SDS011;12348;42.710;23.378;2022-07-18T02:07:28;6.70;;;3.27;;
20076;SDS011;12348;42.710;23.378;2022-07-18T02:09:58;5.60;;;3.43;;
20076;SDS011;12348;42.710;23.378;2022-07-18T02:12:27;7.00;;;3.10;;
20076;SDS011;12348;42.710;23.378;2022-07-18T02:14:54;6.50;;;3.00;;
20076;SDS011;12348;42.710;23.378;2022-07-18T02:17:21;6.27;;;3.10;;
20076;SDS011;12348;42.710;23.378;2022-07-18T02:19:47;6.87;;;2.97;;
20076;SDS011;12348;42.710;23.378;2022-07-18T02:22:15;3.97;;;2.80;;
20076;SDS011;12348;42.710;23.378;2022-07-18T02:24:41;8.13;;;4.07;;
20076;SDS011;12348;42.710;23.378;2022-07-18T02:27:08;8.53;;;3.87;;
20076;SDS011;12348;42.710;23.378;2022-07-18T02:29:37;3.50;;;2.90;;
20076;SDS011;12348;42.710;23.378;2022-07-18T02:32:04;9.20;;;3.77;;
20076;SDS011;12348;42.710;23.378;2022-07-18T02:34:31;7.07;;;3.27;;
20076;SDS011;12348;42.710;23.378;2022-07-18T02:36:58;7.50;;;3.40;;
20076;SDS011;12348;42.710;23.378;2022-07-18T02:39:25;5.27;;;2.30;;
20076;SDS011;12348;42.710;23.378;2022-07-18T02:41:52;4.43;;;2.70;;
20076;SDS011;12348;42.710;23.378;2022-07-18T02:44:19;4.97;;;2.97;;
20076;SDS011;12348;42.710;23.378;2022-07-18T02:46:47;3.60;;;2.60;;
20076;SDS011;12348;42.710;23.378;2022-07-18T02:49:14;6.63;;;3.30;;
20076;SDS011;12348;42.710;23.378;2022-07-18T02:51:53;4.73;;;2.83;;
20076;SDS011;12348;42.710;23.378;2022-07-18T02:54:21;6.70;;;2.93;;
20076;SDS011;12348;42.710;23.378;2022-07-18T02:56:48;5.73;;;3.10;;
20076;SDS011;12348;42.710;23.378;2022-07-18T02:59:15;5.27;;;3.10;;
20076;SDS011;12348;42.710;23.378;2022-07-18T03:01:42;6.30;;;2.90;;
20076;SDS011;12348;42.710;23.378;2022-07-18T03:04:10;4.40;;;2.63;;
20076;SDS011;12348;42.710;23.378;2022-07-18T03:06:37;4.27;;;3.07;;
20076;SDS011;12348;42.710;23.378;2022-07-18T03:09:04;4.13;;;2.70;;
20076;SDS011;12348;42.710;23.378;2022-07-18T03:11:31;6.10;;;2.67;;
20076;SDS011;12348;42.710;23.378;2022-07-18T03:13:57;3.80;;;3.27;;
20076;SDS011;12348;42.710;23.378;2022-07-18T03:16:24;2.83;;;2.30;;
20076;SDS011;12348;42.710;23.378;2022-07-18T03:18:51;6.90;;;2.67;;
20076;SDS011;12348;42.710;23.378;2022-07-18T03:21:20;7.43;;;2.80;;
20076;SDS011;12348;42.710;23.378;2022-07-18T03:23:48;6.13;;;2.90;;
20076;SDS011;12348;42.710;23.378;2022-07-18T03:26:15;4.40;;;2.60;;
20076;SDS011;12348;42.710;23.378;2022-07-18T03:28:42;5.20;;;2.73;;
20076;SDS011;12348;42.710;23.378;2022-07-18T03:31:08;6.20;;;2.60;;
20076;SDS011;12348;42.710;23.378;2022-07-18T03:33:36;10.00;;;3.37;;
20076;SDS011;12348;42.710;23.378;2022-07-18T03:36:03;4.37;;;2.37;;
20076;SDS011;12348;42.710;23.378;2022-07-18T03:38:31;5.47;;;2.40;;
20076;SDS011;12348;42.710;23.378;2022-07-18T03:40:58;3.70;;;2.40;;
20076;SDS011;12348;42.710;23.378;2022-07-18T03:43:25;3.93;;;2.57;;
20076;SDS011;12348;42.710;23.378;2022-07-18T03:45:52;4.20;;;2.40;;
20076;SDS011;12348;42.710;23.378;2022-07-18T03:48:19;3.83;;;2.53;;
20076;SDS011;12348;42.710;23.378;2022-07-18T03:50:45;3.73;;;2.23;;
20076;SDS011;12348;42.710;23.378;2022-07-18T03:53:12;5.77;;;2.20;;
20076;SDS011;12348;42.710;23.378;2022-07-18T03:55:40;4.27;;;2.10;;
20076;SDS011;12348;42.710;23.378;2022-07-18T03:58:07;8.93;;;4.10;;
20076;SDS011;12348;42.710;23.378;2022-07-18T04:00:34;4.93;;;3.30;;
20076;SDS011;12348;42.710;23.378;2022-07-18T04:03:01;9.77;;;5.07;;
20076;SDS011;12348;42.710;23.378;2022-07-18T04:05:28;7.80;;;4.13;;
20076;SDS011;12348;42.710;23.378;2022-07-18T04:07:55;5.40;;;2.73;;
20076;SDS011;12348;42.710;23.378;2022-07-18T04:10:22;5.57;;;2.57;;
20076;SDS011;12348;42.710;23.378;2022-07-18T04:12:50;4.60;;;2.90;;
20076;SDS011;12348;42.710;23.378;2022-07-18T04:15:19;5.87;;;2.90;;
20076;SDS011;12348;42.710;23.378;2022-07-18T04:17:50;7.73;;;3.43;;
20076;SDS011;12348;42.710;23.378;2022-07-18T04:20:18;9.70;;;4.33;;
20076;SDS011;12348;42.710;23.378;2022-07-18T04:22:48;5.33;;;3.77;;
20076;SDS011;12348;42.710;23.378;2022-07-18T04:25:16;7.57;;;3.73;;
20076;SDS011;12348;42.710;23.378;2022-07-18T04:27:43;5.87;;;3.70;;
20076;SDS011;12348;42.710;23.378;2022-07-18T04:30:11;7.93;;;4.70;;
20076;SDS011;12348;42.710;23.378;2022-07-18T04:32:40;7.97;;;4.10;;
20076;SDS011;12348;42.710;23.378;2022-07-18T04:35:07;5.67;;;4.30;;
20076;SDS011;12348;42.710;23.378;2022-07-18T04:37:36;3.57;;;2.53;;
20076;SDS011;12348;42.710;23.378;2022-07-18T04:40:06;4.00;;;2.63;;
20076;SDS011;12348;42.710;23.378;2022-07-18T04:42:35;12.97;;;7.57;;
20076;SDS011;12348;42.710;23.378;2022-07-18T04:45:02;13.40;;;9.17;;
20076;SDS011;12348;42.710;23.378;2022-07-18T04:47:31;10.73;;;6.23;;
20076;SDS011;12348;42.710;23.378;2022-07-18T04:49:58;13.27;;;8.57;;
20076;SDS011;12348;42.710;23.378;2022-07-18T04:52:25;18.60;;;11.20;;
20076;SDS011;12348;42.710;23.378;2022-07-18T04:54:52;5.47;;;3.67;;
20076;SDS011;12348;42.710;23.378;2022-07-18T04:57:19;9.13;;;3.70;;
20076;SDS011;12348;42.710;23.378;2022-07-18T04:59:46;3.57;;;2.67;;
20076;SDS011;12348;42.710;23.378;2022-07-18T05:02:13;7.13;;;3.13;;
20076;SDS011;12348;42.710;23.378;2022-07-18T05:04:41;3.67;;;2.67;;
20076;SDS011;12348;42.710;23.378;2022-07-18T05:07:07;3.23;;;2.47;;
20076;SDS011;12348;42.710;23.378;2022-07-18T05:09:34;4.87;;;2.60;;
20076;SDS011;12348;42.710;23.378;2022-07-18T05:12:01;4.20;;;2.20;;
20076;SDS011;12348;42.710;23.378;2022-07-18T05:14:28;6.07;;;3.33;;
20076;SDS011;12348;42.710;23.378;2022-07-18T05:16:55;3.57;;;2.00;;
20076;SDS011;12348;42.710;23.378;2022-07-18T05:19:22;10.50;;;2.30;;
20076;SDS011;12348;42.710;23.378;2022-07-18T05:21:50;3.70;;;1.73;;
20076;SDS011;12348;42.710;23.378;2022-07-18T05:24:17;3.53;;;2.43;;
20076;SDS011;12348;42.710;23.378;2022-07-18T05:26:44;4.90;;;2.17;;
20076;SDS011;12348;42.710;23.378;2022-07-18T05:29:11;4.43;;;2.87;;
20076;SDS011;12348;42.710;23.378;2022-07-18T05:31:38;8.77;;;5.83;;
20076;SDS011;12348;42.710;23.378;2022-07-18T05:34:06;2.53;;;1.90;;
20076;SDS011;12348;42.710;23.378;2022-07-18T05:36:33;2.83;;;1.80;;
20076;SDS011;12348;42.710;23.378;2022-07-18T05:39:01;3.60;;;1.77;;
20076;SDS011;12348;42.710;23.378;2022-07-18T05:41:28;3.70;;;1.67;;
20076;SDS011;12348;42.710;23.378;2022-07-18T05:43:55;4.83;;;1.60;;
20076;SDS011;12348;42.710;23.378;2022-07-18T05:46:22;3.13;;;2.10;;
20076;SDS011;12348;42.710;23.378;2022-07-18T05:48:49;4.03;;;2.10;;
20076;SDS011;12348;42.710;23.378;2022-07-18T05:51:16;6.50;;;1.87;;
20076;SDS011;12348;42.710;23.378;2022-07-18T05:53:44;3.28;;;1.83;;
20076;SDS011;12348;42.710;23.378;2022-07-18T05:56:12;5.63;;;2.45;;
20076;SDS011;12348;42.710;23.378;2022-07-18T05:58:39;4.63;;;2.03;;
20076;SDS011;12348;42.710;23.378;2022-07-18T06:01:06;4.97;;;2.37;;
20076;SDS011;12348;42.710;23.378;2022-07-18T06:03:33;10.25;;;5.75;;
20076;SDS011;12348;42.710;23.378;2022-07-18T06:06:00;3.90;;;2.63;;
20076;SDS011;12348;42.710;23.378;2022-07-18T06:08:27;3.85;;;2.25;;
20076;SDS011;12348;42.710;23.378;2022-07-18T06:10:54;5.20;;;2.33;;
20076;SDS011;12348;42.710;23.378;2022-07-18T06:13:22;4.97;;;1.90;;
20076;SDS011;12348;42.710;23.378;2022-07-18T06:15:49;4.37;;;2.20;;
20076;SDS011;12348;42.710;23.378;2022-07-18T06:18:16;2.85;;;1.88;;
20076;SDS011;12348;42.710;23.378;2022-07-18T06:20:43;5.05;;;2.63;;
20076;SDS011;12348;42.710;23.378;2022-07-18T06:23:09;6.45;;;1.65;;
20076;SDS011;12348;42.710;23.378;2022-07-18T06:25:36;2.53;;;1.90;;
20076;SDS011;12348;42.710;23.378;2022-07-18T06:28:03;5.07;;;1.83;;
20076;SDS011;12348;42.710;23.378;2022-07-18T06:30:31;7.55;;;2.60;;
20076;SDS011;12348;42.710;23.378;2022-07-18T06:32:58;8.23;;;1.90;;
20076;SDS011;12348;42.710;23.378;2022-07-18T06:35:28;3.10;;;1.65;;
20076;SDS011;12348;42.710;23.378;2022-07-18T06:37:55;6.72;;;2.53;;
20076;SDS011;12348;42.710;23.378;2022-07-18T06:40:22;4.65;;;2.42;;
20076;SDS011;12348;42.710;23.378;2022-07-18T06:42:50;3.00;;;1.25;;
20076;SDS011;12348;42.710;23.378;2022-07-18T06:45:17;6.55;;;2.30;;
20076;SDS011;12348;42.710;23.378;2022-07-18T06:47:45;6.38;;;2.00;;
20076;SDS011;12348;42.710;23.378;2022-07-18T06:50:12;6.15;;;2.22;;
20076;SDS011;12348;42.710;23.378;2022-07-18T06:52:40;6.00;;;2.00;;
20076;SDS011;12348;42.710;23.378;2022-07-18T06:55:08;2.33;;;1.98;;
20076;SDS011;12348;42.710;23.378;2022-07-18T06:57:36;2.25;;;1.75;;
20076;SDS011;12348;42.710;23.378;2022-07-18T07:00:03;5.95;;;3.10;;
20076;SDS011;12348;42.710;23.378;2022-07-18T07:02:31;4.70;;;2.78;;
20076;SDS011;12348;42.710;23.378;2022-07-18T07:04:59;1.65;;;1.25;;
20076;SDS011;12348;42.710;23.378;2022-07-18T07:07:26;1.45;;;1.05;;
20076;SDS011;12348;42.710;23.378;2022-07-18T07:09:54;1.15;;;0.90;;
20076;SDS011;12348;42.710;23.378;2022-07-18T07:12:21;3.20;;;2.30;;
20076;SDS011;12348;42.710;23.378;2022-07-18T07:14:47;3.17;;;1.80;;
20076;SDS011;12348;42.710;23.378;2022-07-18T07:17:14;4.88;;;2.97;;
20076;SDS011;12348;42.710;23.378;2022-07-18T07:19:41;6.43;;;2.45;;
20076;SDS011;12348;42.710;23.378;2022-07-18T07:22:09;3.13;;;2.10;;
20076;SDS011;12348;42.710;23.378;2022-07-18T07:24:36;3.45;;;2.00;;
20076;SDS011;12348;42.710;23.378;2022-07-18T07:27:05;2.40;;;1.52;;
20076;SDS011;12348;42.710;23.378;2022-07-18T07:29:32;2.67;;;1.85;;
20076;SDS011;12348;42.710;23.378;2022-07-18T07:31:58;9.07;;;4.18;;
20076;SDS011;12348;42.710;23.378;2022-07-18T07:34:26;5.22;;;3.65;;
20076;SDS011;12348;42.710;23.378;2022-07-18T07:36:53;1.75;;;1.08;;
20076;SDS011;12348;42.710;23.378;2022-07-18T07:39:21;2.92;;;1.58;;
20076;SDS011;12348;42.710;23.378;2022-07-18T07:41:48;4.00;;;2.97;;
20076;SDS011;12348;42.710;23.378;2022-07-18T07:44:15;2.33;;;1.40;;
20076;SDS011;12348;42.710;23.378;2022-07-18T07:46:42;1.70;;;1.00;;
20076;SDS011;12348;42.710;23.378;2022-07-18T07:49:09;1.40;;;0.90;;
20076;SDS011;12348;42.710;23.378;2022-07-18T07:51:36;2.72;;;1.70;;
20076;SDS011;12348;42.710;23.378;2022-07-18T07:54:02;1.48;;;0.90;;
20076;SDS011;12348;42.710;23.378;2022-07-18T07:56:31;3.75;;;2.10;;
20076;SDS011;12348;42.710;23.378;2022-07-18T07:58:58;1.20;;;1.10;;
20076;SDS011;12348;42.710;23.378;2022-07-18T08:01:26;2.33;;;1.20;;
20076;SDS011;12348;42.710;23.378;2022-07-18T08:03:53;2.03;;;1.05;;
20076;SDS011;12348;42.710;23.378;2022-07-18T08:06:21;0.90;;;0.80;;
20076;SDS011;12348;42.710;23.378;2022-07-18T08:08:48;1.95;;;1.17;;
20076;SDS011;12348;42.710;23.378;2022-07-18T08:11:15;2.15;;;1.10;;
20076;SDS011;12348;42.710;23.378;2022-07-18T08:13:43;1.55;;;1.08;;
20076;SDS011;12348;42.710;23.378;2022-07-18T08:16:10;1.33;;;1.23;;
20076;SDS011;12348;42.710;23.378;2022-07-18T08:18:36;1.27;;;1.00;;
20076;SDS011;12348;42.710;23.378;2022-07-18T08:21:03;3.80;;;1.00;;
20076;SDS011;12348;42.710;23.378;2022-07-18T08:23:30;1.92;;;1.38;;
20076;SDS011;12348;42.710;23.378;2022-07-18T08:25:57;1.33;;;1.02;;
20076;SDS011;12348;42.710;23.378;2022-07-18T08:28:23;2.47;;;1.10;;
20076;SDS011;12348;42.710;23.378;2022-07-18T08:30:52;2.35;;;1.83;;
20076;SDS011;12348;42.710;23.378;2022-07-18T08:33:19;1.77;;;0.70;;
20076;SDS011;12348;42.710;23.378;2022-07-18T08:35:46;1.40;;;0.80;;
20076;SDS011;12348;42.710;23.378;2022-07-18T08:38:12;4.72;;;1.60;;
20076;SDS011;12348;42.710;23.378;2022-07-18T08:40:39;1.83;;;1.30;;
20076;SDS011;12348;42.710;23.378;2022-07-18T08:43:06;1.40;;;1.10;;
20076;SDS011;12348;42.710;23.378;2022-07-18T08:45:33;1.13;;;0.77;;
20076;SDS011;12348;42.710;23.378;2022-07-18T08:48:03;1.17;;;0.77;;
20076;SDS011;12348;42.710;23.378;2022-07-18T08:50:30;1.87;;;1.30;;
20076;SDS011;12348;42.710;23.378;2022-07-18T08:52:57;1.00;;;0.90;;
20076;SDS011;12348;42.710;23.378;2022-07-18T08:55:25;2.92;;;1.30;;
20076;SDS011;12348;42.710;23.378;2022-07-18T08:57:52;4.93;;;1.83;;
20076;SDS011;12348;42.710;23.378;2022-07-18T09:00:20;1.92;;;1.60;;
20076;SDS011;12348;42.710;23.378;2022-07-18T09:02:55;3.08;;;1.27;;
20076;SDS011;12348;42.710;23.378;2022-07-18T09:05:24;2.80;;;1.55;;
20076;SDS011;12348;42.710;23.378;2022-07-18T09:07:51;4.55;;;2.00;;
20076;SDS011;12348;42.710;23.378;2022-07-18T09:10:17;8.50;;;4.50;;
20076;SDS011;12348;42.710;23.378;2022-07-18T09:12:54;2.53;;;1.92;;
20076;SDS011;12348;42.710;23.378;2022-07-18T09:15:23;6.45;;;2.78;;
20076;SDS011;12348;42.710;23.378;2022-07-18T09:17:50;5.82;;;2.45;;
20076;SDS011;12348;42.710;23.378;2022-07-18T09:20:16;3.67;;;2.45;;
20076;SDS011;12348;42.710;23.378;2022-07-18T09:22:45;1.50;;;1.20;;
20076;SDS011;12348;42.710;23.378;2022-07-18T09:25:13;3.25;;;1.70;;
20076;SDS011;12348;42.710;23.378;2022-07-18T09:27:42;2.67;;;1.70;;
20076;SDS011;12348;42.710;23.378;2022-07-18T09:30:19;2.47;;;2.27;;
20076;SDS011;12348;42.710;23.378;2022-07-18T09:32:51;3.90;;;1.70;;
20076;SDS011;12348;42.710;23.378;2022-07-18T09:35:21;4.30;;;2.13;;
20076;SDS011;12348;42.710;23.378;2022-07-18T09:38:01;4.77;;;1.43;;
20076;SDS011;12348;42.710;23.378;2022-07-18T09:40:31;3.40;;;2.10;;
20076;SDS011;12348;42.710;23.378;2022-07-18T09:42:59;3.43;;;1.10;;
20076;SDS011;12348;42.710;23.378;2022-07-18T09:45:27;1.67;;;0.90;;
20076;SDS011;12348;42.710;23.378;2022-07-18T09:47:57;2.53;;;1.73;;
20076;SDS011;12348;42.710;23.378;2022-07-18T09:50:26;5.38;;;3.10;;
20076;SDS011;12348;42.710;23.378;2022-07-18T09:52:55;3.00;;;1.90;;
20076;SDS011;12348;42.710;23.378;2022-07-18T09:55:27;6.63;;;2.80;;
20076;SDS011;12348;42.710;23.378;2022-07-18T09:58:01;1.60;;;1.33;;
20076;SDS011;12348;42.710;23.378;2022-07-18T10:00:31;9.07;;;4.93;;
20076;SDS011;12348;42.710;23.378;2022-07-18T10:02:59;4.40;;;2.88;;
20076;SDS011;12348;42.710;23.378;2022-07-18T10:05:27;5.97;;;4.10;;
20076;SDS011;12348;42.710;23.378;2022-07-18T10:07:56;3.45;;;2.53;;
20076;SDS011;12348;42.710;23.378;2022-07-18T10:10:24;4.28;;;2.10;;
20076;SDS011;12348;42.710;23.378;2022-07-18T10:12:53;3.22;;;1.50;;
20076;SDS011;12348;42.710;23.378;2022-07-18T10:15:22;2.25;;;1.83;;
20076;SDS011;12348;42.710;23.378;2022-07-18T10:17:50;3.15;;;1.20;;
20076;SDS011;12348;42.710;23.378;2022-07-18T10:20:17;3.33;;;1.80;;
20076;SDS011;12348;42.710;23.378;2022-07-18T10:22:51;2.77;;;1.30;;
20076;SDS011;12348;42.710;23.378;2022-07-18T10:25:21;2.72;;;1.70;;
20076;SDS011;12348;42.710;23.378;2022-07-18T10:27:51;6.70;;;1.55;;
20076;SDS011;12348;42.710;23.378;2022-07-18T10:30:30;1.63;;;1.25;;
20076;SDS011;12348;42.710;23.378;2022-07-18T10:32:59;4.55;;;1.83;;
20076;SDS011;12348;42.710;23.378;2022-07-18T10:38:28;1.83;;;1.63;;
20076;SDS011;12348;42.710;23.378;2022-07-18T10:41:02;5.03;;;1.83;;
20076;SDS011;12348;42.710;23.378;2022-07-18T10:43:35;5.13;;;2.00;;
20076;SDS011;12348;42.710;23.378;2022-07-18T10:46:06;4.77;;;1.70;;
20076;SDS011;12348;42.710;23.378;2022-07-18T10:48:50;6.80;;;2.03;;
20076;SDS011;12348;42.710;23.378;2022-07-18T10:51:19;5.37;;;1.70;;
20076;SDS011;12348;42.710;23.378;2022-07-18T10:59:35;3.03;;;1.67;;
20076;SDS011;12348;42.710;23.378;2022-07-18T11:02:06;2.73;;;2.27;;
20076;SDS011;12348;42.710;23.378;2022-07-18T11:04:38;3.53;;;2.60;;
20076;SDS011;12348;42.710;23.378;2022-07-18T11:07:07;3.37;;;1.70;;
20076;SDS011;12348;42.710;23.378;2022-07-18T11:09:37;5.90;;;4.10;;
20076;SDS011;12348;42.710;23.378;2022-07-18T11:12:23;2.50;;;1.70;;
20076;SDS011;12348;42.710;23.378;2022-07-18T11:14:59;3.27;;;2.50;;
20076;SDS011;12348;42.710;23.378;2022-07-18T11:20:23;12.30;;;1.83;;
20076;SDS011;12348;42.710;23.378;2022-07-18T11:22:52;2.03;;;1.47;;
20076;SDS011;12348;42.710;23.378;2022-07-18T11:25:19;4.50;;;2.07;;
20076;SDS011;12348;42.710;23.378;2022-07-18T11:27:46;2.70;;;1.67;;
20076;SDS011;12348;42.710;23.378;2022-07-18T11:30:17;5.37;;;2.23;;
20076;SDS011;12348;42.710;23.378;2022-07-18T11:32:45;3.07;;;2.10;;
20076;SDS011;12348;42.710;23.378;2022-07-18T11:35:12;2.83;;;1.97;;
20076;SDS011;12348;42.710;23.378;2022-07-18T11:37:39;3.63;;;2.73;;
20076;SDS011;12348;42.710;23.378;2022-07-18T11:40:13;4.53;;;1.67;;
20076;SDS011;12348;42.710;23.378;2022-07-18T11:42:40;6.57;;;3.50;;
20076;SDS011;12348;42.710;23.378;2022-07-18T11:45:09;3.40;;;2.07;;
20076;SDS011;12348;42.710;23.378;2022-07-18T11:47:39;4.07;;;2.40;;
20076;SDS011;12348;42.710;23.378;2022-07-18T11:50:11;6.27;;;2.03;;
20076;SDS011;12348;42.710;23.378;2022-07-18T11:52:37;9.03;;;2.03;;
20076;SDS011;12348;42.710;23.378;2022-07-18T11:55:05;3.50;;;2.20;;
20076;SDS011;12348;42.710;23.378;2022-07-18T11:57:32;1.70;;;1.57;;
20076;SDS011;12348;42.710;23.378;2022-07-18T12:00:00;3.90;;;1.80;;
20076;SDS011;12348;42.710;23.378;2022-07-18T12:05:37;4.67;;;2.50;;
20076;SDS011;12348;42.710;23.378;2022-07-18T12:11:07;2.93;;;1.50;;
20076;SDS011;12348;42.710;23.378;2022-07-18T12:13:39;4.03;;;2.40;;
20076;SDS011;12348;42.710;23.378;2022-07-18T12:16:31;4.73;;;2.87;;
20076;SDS011;12348;42.710;23.378;2022-07-18T12:19:02;4.77;;;2.20;;
20076;SDS011;12348;42.710;23.378;2022-07-18T12:21:46;3.97;;;2.17;;
20076;SDS011;12348;42.710;23.378;2022-07-18T12:24:19;2.60;;;1.90;;
20076;SDS011;12348;42.710;23.378;2022-07-18T12:26:56;4.33;;;2.70;;
20076;SDS011;12348;42.710;23.378;2022-07-18T12:32:44;5.57;;;2.50;;
20076;SDS011;12348;42.710;23.378;2022-07-18T12:35:15;6.10;;;2.23;;
20076;SDS011;12348;42.710;23.378;2022-07-18T12:37:50;8.43;;;2.20;;
20076;SDS011;12348;42.710;23.378;2022-07-18T12:40:19;6.63;;;2.70;;
20076;SDS011;12348;42.710;23.378;2022-07-18T12:42:46;3.90;;;2.33;;
20076;SDS011;12348;42.710;23.378;2022-07-18T12:45:13;2.80;;;2.00;;
20076;SDS011;12348;42.710;23.378;2022-07-18T12:47:41;3.97;;;1.73;;
20076;SDS011;12348;42.710;23.378;2022-07-18T12:50:08;5.43;;;3.17;;
20076;SDS011;12348;42.710;23.378;2022-07-18T12:52:36;5.50;;;2.90;;
20076;SDS011;12348;42.710;23.378;2022-07-18T12:55:03;3.37;;;2.10;;
20076;SDS011;12348;42.710;23.378;2022-07-18T12:57:31;4.97;;;1.70;;
20076;SDS011;12348;42.710;23.378;2022-07-18T12:59:58;4.43;;;2.10;;
20076;SDS011;12348;42.710;23.378;2022-07-18T13:02:25;5.50;;;4.00;;
20076;SDS011;12348;42.710;23.378;2022-07-18T13:04:51;3.30;;;2.80;;
20076;SDS011;12348;42.710;23.378;2022-07-18T13:07:18;8.50;;;2.73;;
20076;SDS011;12348;42.710;23.378;2022-07-18T13:09:46;5.40;;;3.10;;
20076;SDS011;12348;42.710;23.378;2022-07-18T13:12:13;3.73;;;2.27;;
20076;SDS011;12348;42.710;23.378;2022-07-18T13:14:40;4.83;;;2.77;;
20076;SDS011;12348;42.710;23.378;2022-07-18T13:17:07;4.80;;;3.43;;
20076;SDS011;12348;42.710;23.378;2022-07-18T13:19:34;5.77;;;2.60;;
20076;SDS011;12348;42.710;23.378;2022-07-18T13:22:01;7.60;;;3.17;;
20076;SDS011;12348;42.710;23.378;2022-07-18T13:24:27;6.20;;;3.13;;
20076;SDS011;12348;42.710;23.378;2022-07-18T13:26:56;3.93;;;2.70;;
20076;SDS011;12348;42.710;23.378;2022-07-18T13:29:22;5.97;;;2.47;;
20076;SDS011;12348;42.710;23.378;2022-07-18T13:31:49;1.60;;;1.50;;
20076;SDS011;12348;42.710;23.378;2022-07-18T13:34:17;3.23;;;2.23;;
20076;SDS011;12348;42.710;23.378;2022-07-18T13:36:47;2.97;;;1.70;;
20076;SDS011;12348;42.710;23.378;2022-07-18T13:39:15;5.57;;;2.13;;
20076;SDS011;12348;42.710;23.378;2022-07-18T13:41:41;5.00;;;2.60;;
20076;SDS011;12348;42.710;23.378;2022-07-18T13:44:10;5.23;;;2.80;;
20076;SDS011;12348;42.710;23.378;2022-07-18T13:46:37;5.20;;;2.73;;
20076;SDS011;12348;42.710;23.378;2022-07-18T13:49:05;5.67;;;1.97;;
20076;SDS011;12348;42.710;23.378;2022-07-18T13:51:33;5.43;;;3.27;;
20076;SDS011;12348;42.710;23.378;2022-07-18T13:53:59;3.93;;;3.10;;
20076;SDS011;12348;42.710;23.378;2022-07-18T13:56:26;4.97;;;3.93;;
20076;SDS011;12348;42.710;23.378;2022-07-18T13:58:53;5.90;;;3.33;;
20076;SDS011;12348;42.710;23.378;2022-07-18T14:01:21;4.63;;;3.00;;
20076;SDS011;12348;42.710;23.378;2022-07-18T14:03:48;8.10;;;3.33;;
20076;SDS011;12348;42.710;23.378;2022-07-18T14:06:15;4.43;;;2.70;;
20076;SDS011;12348;42.710;23.378;2022-07-18T14:08:42;3.10;;;2.20;;
20076;SDS011;12348;42.710;23.378;2022-07-18T14:11:09;4.40;;;1.87;;
20076;SDS011;12348;42.710;23.378;2022-07-18T14:13:36;2.60;;;2.10;;
20076;SDS011;12348;42.710;23.378;2022-07-18T14:16:03;5.60;;;2.53;;
20076;SDS011;12348;42.710;23.378;2022-07-18T14:18:31;3.73;;;2.77;;
20076;SDS011;12348;42.710;23.378;2022-07-18T14:20:58;9.57;;;4.03;;
20076;SDS011;12348;42.710;23.378;2022-07-18T14:23:25;7.70;;;4.07;;
20076;SDS011;12348;42.710;23.378;2022-07-18T14:25:52;7.53;;;3.90;;
20076;SDS011;12348;42.710;23.378;2022-07-18T14:28:19;4.43;;;3.13;;
20076;SDS011;12348;42.710;23.378;2022-07-18T14:30:45;3.53;;;2.67;;
20076;SDS011;12348;42.710;23.378;2022-07-18T14:33:12;4.20;;;2.60;;
20076;SDS011;12348;42.710;23.378;2022-07-18T14:35:40;2.50;;;2.30;;
20076;SDS011;12348;42.710;23.378;2022-07-18T14:38:07;3.13;;;2.27;;
20076;SDS011;12348;42.710;23.378;2022-07-18T14:40:34;7.97;;;3.10;;
20076;SDS011;12348;42.710;23.378;2022-07-18T14:43:01;3.50;;;2.37;;
20076;SDS011;12348;42.710;23.378;2022-07-18T14:45:28;3.87;;;2.77;;
20076;SDS011;12348;42.710;23.378;2022-07-18T14:47:55;4.63;;;3.37;;
20076;SDS011;12348;42.710;23.378;2022-07-18T14:50:22;5.63;;;4.13;;
20076;SDS011;12348;42.710;23.378;2022-07-18T14:52:50;3.80;;;2.93;;
20076;SDS011;12348;42.710;23.378;2022-07-18T14:55:17;3.60;;;2.33;;
20076;SDS011;12348;42.710;23.378;2022-07-18T14:57:44;7.80;;;2.97;;
20076;SDS011;12348;42.710;23.378;2022-07-18T15:00:11;2.47;;;2.13;;
20076;SDS011;12348;42.710;23.378;2022-07-18T15:02:38;3.23;;;2.67;;